sensor_id;sensor_type;location;lat;lon;timestamp;P1;durP1;ratioP1;P2;durP2;ratioP2
29414;SDS011;20303;48.302;11.914;2023-04-30T00:08:42;1.52;;;1.35;;
29414;SDS011;20303;48.302;11.914;2023-04-30T00:18:44;1.58;;;1.35;;
29414;SDS011;20303;48.302;11.914;2023-04-30T00:28:45;2.13;;;1.38;;
29414;SDS011;20303;48.302;11.914;2023-04-30T00:38:46;2.85;;;1.50;;
29414;SDS011;20303;48.302;11.914;2023-04-30T00:48:47;2.90;;;1.52;;
29414;SDS011;20303;48.302;11.914;2023-04-30T00:58:48;2.58;;;1.60;;
29414;SDS011;20303;48.302;11.914;2023-04-30T01:08:53;2.75;;;1.60;;
29414;SDS011;20303;48.302;11.914;2023-04-30T01:18:58;2.42;;;1.50;;
29414;SDS011;20303;48.302;11.914;2023-04-30T01:29:02;2.03;;;1.50;;
29414;SDS011;20303;48.302;11.914;2023-04-30T01:59:19;2.13;;;1.58;;
29414;SDS011;20303;48.302;11.914;2023-04-30T02:09:20;1.52;;;1.40;;
29414;SDS011;20303;48.302;11.914;2023-04-30T02:19:23;1.92;;;1.48;;
29414;SDS011;20303;48.302;11.914;2023-04-30T02:29:24;1.73;;;1.50;;
29414;SDS011;20303;48.302;11.914;2023-04-30T02:39:25;1.83;;;1.55;;
29414;SDS011;20303;48.302;11.914;2023-04-30T02:49:26;1.70;;;1.33;;
29414;SDS011;20303;48.302;11.914;2023-04-30T02:59:27;1.65;;;1.55;;
29414;SDS011;20303;48.302;11.914;2023-04-30T03:09:29;3.40;;;1.73;;
29414;SDS011;20303;48.302;11.914;2023-04-30T03:19:31;2.40;;;1.80;;
29414;SDS011;20303;48.302;11.914;2023-04-30T03:29:32;1.65;;;1.45;;
29414;SDS011;20303;48.302;11.914;2023-04-30T03:39:33;1.70;;;1.50;;
29414;SDS011;20303;48.302;11.914;2023-04-30T03:49:34;1.75;;;1.50;;
29414;SDS011;20303;48.302;11.914;2023-04-30T03:59:36;1.88;;;1.58;;
29414;SDS011;20303;48.302;11.914;2023-04-30T04:09:37;2.13;;;1.55;;
29414;SDS011;20303;48.302;11.914;2023-04-30T04:19:38;2.47;;;1.60;;
29414;SDS011;20303;48.302;11.914;2023-04-30T04:29:39;2.75;;;1.55;;
29414;SDS011;20303;48.302;11.914;2023-04-30T04:39:40;2.28;;;1.60;;
29414;SDS011;20303;48.302;11.914;2023-04-30T04:49:41;3.17;;;1.60;;
29414;SDS011;20303;48.302;11.914;2023-04-30T04:59:42;2.15;;;1.67;;
29414;SDS011;20303;48.302;11.914;2023-04-30T05:09:43;1.90;;;1.70;;
29414;SDS011;20303;48.302;11.914;2023-04-30T05:19:45;3.00;;;1.83;;
29414;SDS011;20303;48.302;11.914;2023-04-30T05:29:49;2.05;;;1.80;;
29414;SDS011;20303;48.302;11.914;2023-04-30T05:39:50;2.20;;;1.80;;
29414;SDS011;20303;48.302;11.914;2023-04-30T05:49:52;2.80;;;1.88;;
29414;SDS011;20303;48.302;11.914;2023-04-30T05:59:53;1.90;;;1.75;;
29414;SDS011;20303;48.302;11.914;2023-04-30T06:09:57;2.38;;;1.75;;
29414;SDS011;20303;48.302;11.914;2023-04-30T06:19:59;2.08;;;1.85;;
29414;SDS011;20303;48.302;11.914;2023-04-30T06:30:05;3.03;;;1.80;;
29414;SDS011;20303;48.302;11.914;2023-04-30T06:40:06;2.03;;;1.83;;
29414;SDS011;20303;48.302;11.914;2023-04-30T06:50:08;3.50;;;1.98;;
29414;SDS011;20303;48.302;11.914;2023-04-30T07:00:09;5.70;;;2.70;;
29414;SDS011;20303;48.302;11.914;2023-04-30T07:10:11;5.35;;;2.97;;
29414;SDS011;20303;48.302;11.914;2023-04-30T07:20:12;5.88;;;2.90;;
29414;SDS011;20303;48.302;11.914;2023-04-30T07:30:13;5.35;;;3.28;;
29414;SDS011;20303;48.302;11.914;2023-04-30T07:40:14;8.40;;;3.47;;
29414;SDS011;20303;48.302;11.914;2023-04-30T07:50:15;6.28;;;3.38;;
29414;SDS011;20303;48.302;11.914;2023-04-30T08:00:17;4.97;;;3.10;;
29414;SDS011;20303;48.302;11.914;2023-04-30T08:10:18;7.55;;;3.20;;
29414;SDS011;20303;48.302;11.914;2023-04-30T08:20:20;5.57;;;3.38;;
29414;SDS011;20303;48.302;11.914;2023-04-30T08:30:22;7.03;;;2.90;;
29414;SDS011;20303;48.302;11.914;2023-04-30T08:40:23;5.18;;;3.10;;
29414;SDS011;20303;48.302;11.914;2023-04-30T08:50:26;4.30;;;2.90;;
29414;SDS011;20303;48.302;11.914;2023-04-30T09:00:27;4.28;;;3.03;;
29414;SDS011;20303;48.302;11.914;2023-04-30T09:10:32;4.75;;;2.85;;
29414;SDS011;20303;48.302;11.914;2023-04-30T09:20:33;4.63;;;3.00;;
29414;SDS011;20303;48.302;11.914;2023-04-30T09:30:35;4.57;;;3.00;;
29414;SDS011;20303;48.302;11.914;2023-04-30T09:40:37;4.47;;;2.88;;
29414;SDS011;20303;48.302;11.914;2023-04-30T09:50:40;4.70;;;2.58;;
29414;SDS011;20303;48.302;11.914;2023-04-30T10:00:42;3.70;;;2.83;;
29414;SDS011;20303;48.302;11.914;2023-04-30T10:10:57;4.53;;;3.20;;
29414;SDS011;20303;48.302;11.914;2023-04-30T10:21:05;3.95;;;2.80;;
29414;SDS011;20303;48.302;11.914;2023-04-30T10:31:11;3.47;;;2.70;;
29414;SDS011;20303;48.302;11.914;2023-04-30T10:41:12;6.65;;;3.20;;
29414;SDS011;20303;48.302;11.914;2023-04-30T10:51:14;5.57;;;3.00;;
29414;SDS011;20303;48.302;11.914;2023-04-30T11:01:15;4.10;;;2.90;;
29414;SDS011;20303;48.302;11.914;2023-04-30T11:11:17;6.03;;;3.22;;
29414;SDS011;20303;48.302;11.914;2023-04-30T11:21:22;5.30;;;3.90;;
29414;SDS011;20303;48.302;11.914;2023-04-30T11:31:32;9.30;;;5.10;;
29414;SDS011;20303;48.302;11.914;2023-04-30T11:41:39;9.23;;;5.82;;
29414;SDS011;20303;48.302;11.914;2023-04-30T11:51:46;10.85;;;5.97;;
29414;SDS011;20303;48.302;11.914;2023-04-30T12:01:48;11.10;;;6.38;;
29414;SDS011;20303;48.302;11.914;2023-04-30T12:11:49;9.73;;;5.18;;
29414;SDS011;20303;48.302;11.914;2023-04-30T12:21:50;17.27;;;4.00;;
29414;SDS011;20303;48.302;11.914;2023-04-30T12:31:53;8.85;;;3.10;;
29414;SDS011;20303;48.302;11.914;2023-04-30T12:41:54;6.40;;;3.00;;
29414;SDS011;20303;48.302;11.914;2023-04-30T12:52:04;4.15;;;2.88;;
29414;SDS011;20303;48.302;11.914;2023-04-30T13:02:09;3.53;;;2.70;;
29414;SDS011;20303;48.302;11.914;2023-04-30T13:12:12;4.72;;;3.20;;
29414;SDS011;20303;48.302;11.914;2023-04-30T13:22:13;4.28;;;3.50;;
29414;SDS011;20303;48.302;11.914;2023-04-30T13:32:14;4.00;;;3.00;;
29414;SDS011;20303;48.302;11.914;2023-04-30T13:42:16;4.47;;;2.60;;
29414;SDS011;20303;48.302;11.914;2023-04-30T13:52:17;4.13;;;2.67;;
29414;SDS011;20303;48.302;11.914;2023-04-30T14:02:18;3.55;;;3.08;;
29414;SDS011;20303;48.302;11.914;2023-04-30T14:12:19;3.15;;;2.67;;
29414;SDS011;20303;48.302;11.914;2023-04-30T14:22:20;24.35;;;3.40;;
29414;SDS011;20303;48.302;11.914;2023-04-30T14:32:24;40.47;;;5.22;;
29414;SDS011;20303;48.302;11.914;2023-04-30T14:42:25;18.30;;;3.40;;
29414;SDS011;20303;48.302;11.914;2023-04-30T14:52:26;15.93;;;3.28;;
29414;SDS011;20303;48.302;11.914;2023-04-30T15:02:27;9.27;;;3.05;;
29414;SDS011;20303;48.302;11.914;2023-04-30T15:12:28;6.53;;;2.78;;
29414;SDS011;20303;48.302;11.914;2023-04-30T15:22:29;8.65;;;2.85;;
29414;SDS011;20303;48.302;11.914;2023-04-30T15:32:32;5.00;;;2.70;;
29414;SDS011;20303;48.302;11.914;2023-04-30T15:42:33;8.90;;;2.75;;
29414;SDS011;20303;48.302;11.914;2023-04-30T15:52:34;11.23;;;3.30;;
29414;SDS011;20303;48.302;11.914;2023-04-30T16:02:35;9.82;;;3.67;;
29414;SDS011;20303;48.302;11.914;2023-04-30T16:12:36;16.13;;;4.30;;
29414;SDS011;20303;48.302;11.914;2023-04-30T16:22:38;14.18;;;4.35;;
29414;SDS011;20303;48.302;11.914;2023-04-30T16:32:39;8.13;;;3.30;;
29414;SDS011;20303;48.302;11.914;2023-04-30T16:42:40;10.73;;;3.30;;
29414;SDS011;20303;48.302;11.914;2023-04-30T16:52:42;7.25;;;2.85;;
29414;SDS011;20303;48.302;11.914;2023-04-30T17:02:44;9.20;;;3.00;;
29414;SDS011;20303;48.302;11.914;2023-04-30T17:12:47;6.63;;;3.30;;
29414;SDS011;20303;48.302;11.914;2023-04-30T17:22:48;6.68;;;2.80;;
29414;SDS011;20303;48.302;11.914;2023-04-30T17:32:49;5.07;;;2.90;;
29414;SDS011;20303;48.302;11.914;2023-04-30T17:42:51;5.18;;;2.72;;
29414;SDS011;20303;48.302;11.914;2023-04-30T17:52:53;5.70;;;2.80;;
29414;SDS011;20303;48.302;11.914;2023-04-30T18:02:54;3.83;;;2.78;;
29414;SDS011;20303;48.302;11.914;2023-04-30T18:12:56;6.63;;;3.30;;
29414;SDS011;20303;48.302;11.914;2023-04-30T18:22:58;6.30;;;2.88;;
29414;SDS011;20303;48.302;11.914;2023-04-30T18:32:59;5.28;;;2.60;;
29414;SDS011;20303;48.302;11.914;2023-04-30T18:43:00;8.40;;;3.28;;
29414;SDS011;20303;48.302;11.914;2023-04-30T18:53:02;6.72;;;2.97;;
29414;SDS011;20303;48.302;11.914;2023-04-30T19:03:04;5.30;;;2.90;;
29414;SDS011;20303;48.302;11.914;2023-04-30T19:13:05;4.80;;;2.63;;
29414;SDS011;20303;48.302;11.914;2023-04-30T19:23:06;6.13;;;2.83;;
29414;SDS011;20303;48.302;11.914;2023-04-30T19:33:08;4.72;;;2.42;;
29414;SDS011;20303;48.302;11.914;2023-04-30T19:43:11;6.60;;;2.70;;
29414;SDS011;20303;48.302;11.914;2023-04-30T19:53:12;5.47;;;2.70;;
29414;SDS011;20303;48.302;11.914;2023-04-30T20:03:14;5.20;;;2.45;;
29414;SDS011;20303;48.302;11.914;2023-04-30T20:13:16;4.00;;;2.47;;
29414;SDS011;20303;48.302;11.914;2023-04-30T20:23:17;3.53;;;2.60;;
29414;SDS011;20303;48.302;11.914;2023-04-30T20:33:19;3.03;;;2.33;;
29414;SDS011;20303;48.302;11.914;2023-04-30T20:43:20;5.13;;;2.50;;
29414;SDS011;20303;48.302;11.914;2023-04-30T20:53:21;6.82;;;2.85;;
29414;SDS011;20303;48.302;11.914;2023-04-30T21:03:22;7.32;;;2.78;;
29414;SDS011;20303;48.302;11.914;2023-04-30T21:13:23;7.65;;;2.50;;
29414;SDS011;20303;48.302;11.914;2023-04-30T21:23:24;5.25;;;2.40;;
29414;SDS011;20303;48.302;11.914;2023-04-30T21:33:25;4.57;;;2.60;;
29414;SDS011;20303;48.302;11.914;2023-04-30T21:43:26;9.57;;;2.47;;
29414;SDS011;20303;48.302;11.914;2023-04-30T21:53:27;6.22;;;2.60;;
29414;SDS011;20303;48.302;11.914;2023-04-30T22:03:29;4.88;;;2.40;;
29414;SDS011;20303;48.302;11.914;2023-04-30T22:13:30;3.53;;;2.30;;
29414;SDS011;20303;48.302;11.914;2023-04-30T22:23:31;5.28;;;2.28;;
29414;SDS011;20303;48.302;11.914;2023-04-30T22:33:33;7.53;;;2.67;;
29414;SDS011;20303;48.302;11.914;2023-04-30T22:43:34;4.68;;;2.50;;
29414;SDS011;20303;48.302;11.914;2023-04-30T22:53:36;4.43;;;2.40;;
29414;SDS011;20303;48.302;11.914;2023-04-30T23:03:37;4.05;;;2.38;;
29414;SDS011;20303;48.302;11.914;2023-04-30T23:13:38;2.97;;;2.40;;
29414;SDS011;20303;48.302;11.914;2023-04-30T23:23:40;3.08;;;2.20;;
29414;SDS011;20303;48.302;11.914;2023-04-30T23:33:41;2.88;;;2.10;;
29414;SDS011;20303;48.302;11.914;2023-04-30T23:43:42;2.67;;;2.17;;
29414;SDS011;20303;48.302;11.914;2023-04-30T23:53:43;4.82;;;2.22;;
